sensor_id;sensor_type;location;lat;lon;timestamp;temperature;humidity
40323;DHT22;26030;51.164;17.100;2022-08-19T00:04:12;27.90;60.30
40323;DHT22;26030;51.164;17.100;2022-08-19T00:09:17;27.90;60.30
40323;DHT22;26030;51.164;17.100;2022-08-19T00:14:20;27.90;60.40
40323;DHT22;26030;51.164;17.100;2022-08-19T00:19:25;27.90;60.30
40323;DHT22;26030;51.164;17.100;2022-08-19T00:24:28;27.80;60.70
40323;DHT22;26030;51.164;17.100;2022-08-19T00:29:30;27.90;60.60
40323;DHT22;26030;51.164;17.100;2022-08-19T00:34:33;27.80;60.30
40323;DHT22;26030;51.164;17.100;2022-08-19T00:39:38;27.80;60.30
40323;DHT22;26030;51.164;17.100;2022-08-19T00:44:40;27.80;60.70
40323;DHT22;26030;51.164;17.100;2022-08-19T00:49:45;27.80;60.40
40323;DHT22;26030;51.164;17.100;2022-08-19T00:54:53;27.80;60.30
40323;DHT22;26030;51.164;17.100;2022-08-19T00:59:55;27.80;60.30
40323;DHT22;26030;51.164;17.100;2022-08-19T01:05:05;27.80;60.30
40323;DHT22;26030;51.164;17.100;2022-08-19T01:10:11;27.80;60.30
40323;DHT22;26030;51.164;17.100;2022-08-19T01:15:17;27.80;60.30
40323;DHT22;26030;51.164;17.100;2022-08-19T01:20:23;27.80;60.40
40323;DHT22;26030;51.164;17.100;2022-08-19T01:25:31;27.80;60.40
40323;DHT22;26030;51.164;17.100;2022-08-19T01:30:39;27.80;60.40
40323;DHT22;26030;51.164;17.100;2022-08-19T01:35:45;27.80;60.40
40323;DHT22;26030;51.164;17.100;2022-08-19T01:40:52;27.70;60.80
40323;DHT22;26030;51.164;17.100;2022-08-19T01:45:55;27.70;60.60
40323;DHT22;26030;51.164;17.100;2022-08-19T01:50:57;27.70;60.60
40323;DHT22;26030;51.164;17.100;2022-08-19T01:55:59;27.70;60.60
40323;DHT22;26030;51.164;17.100;2022-08-19T02:01:03;27.70;60.60
40323;DHT22;26030;51.164;17.100;2022-08-19T02:06:06;27.70;60.70
40323;DHT22;26030;51.164;17.100;2022-08-19T02:11:08;27.70;60.60
40323;DHT22;26030;51.164;17.100;2022-08-19T02:16:19;27.70;60.60
40323;DHT22;26030;51.164;17.100;2022-08-19T02:21:23;27.70;60.60
40323;DHT22;26030;51.164;17.100;2022-08-19T02:26:26;27.70;60.90
40323;DHT22;26030;51.164;17.100;2022-08-19T02:31:28;27.70;60.50
40323;DHT22;26030;51.164;17.100;2022-08-19T02:36:31;27.60;60.50
40323;DHT22;26030;51.164;17.100;2022-08-19T02:41:33;27.70;60.90
40323;DHT22;26030;51.164;17.100;2022-08-19T02:46:36;27.60;60.60
40323;DHT22;26030;51.164;17.100;2022-08-19T02:51:39;27.70;60.60
40323;DHT22;26030;51.164;17.100;2022-08-19T02:56:45;27.60;60.60
40323;DHT22;26030;51.164;17.100;2022-08-19T03:01:48;27.60;60.90
40323;DHT22;26030;51.164;17.100;2022-08-19T03:06:50;27.60;61.00
40323;DHT22;26030;51.164;17.100;2022-08-19T03:11:53;27.60;60.90
40323;DHT22;26030;51.164;17.100;2022-08-19T03:16:55;27.60;60.60
40323;DHT22;26030;51.164;17.100;2022-08-19T03:21:57;27.60;60.00
40323;DHT22;26030;51.164;17.100;2022-08-19T03:27:00;27.60;60.60
40323;DHT22;26030;51.164;17.100;2022-08-19T03:32:04;27.60;60.60
40323;DHT22;26030;51.164;17.100;2022-08-19T03:37:09;27.60;60.60
40323;DHT22;26030;51.164;17.100;2022-08-19T03:42:13;27.60;60.60
40323;DHT22;26030;51.164;17.100;2022-08-19T03:47:36;27.60;60.60
40323;DHT22;26030;51.164;17.100;2022-08-19T03:52:39;27.50;60.90
40323;DHT22;26030;51.164;17.100;2022-08-19T03:57:48;27.50;60.60
40323;DHT22;26030;51.164;17.100;2022-08-19T04:02:50;27.50;60.60
40323;DHT22;26030;51.164;17.100;2022-08-19T04:08:03;27.50;60.70
40323;DHT22;26030;51.164;17.100;2022-08-19T04:13:12;27.60;60.70
40323;DHT22;26030;51.164;17.100;2022-08-19T04:18:14;27.50;60.70
40323;DHT22;26030;51.164;17.100;2022-08-19T04:23:17;27.50;61.00
40323;DHT22;26030;51.164;17.100;2022-08-19T04:28:20;27.50;60.70
40323;DHT22;26030;51.164;17.100;2022-08-19T04:33:24;27.50;60.70
40323;DHT22;26030;51.164;17.100;2022-08-19T04:38:31;27.50;60.80
40323;DHT22;26030;51.164;17.100;2022-08-19T04:43:39;27.50;60.90
40323;DHT22;26030;51.164;17.100;2022-08-19T04:48:42;27.50;60.90
40323;DHT22;26030;51.164;17.100;2022-08-19T04:53:53;27.50;60.90
40323;DHT22;26030;51.164;17.100;2022-08-19T04:58:59;27.50;60.90
40323;DHT22;26030;51.164;17.100;2022-08-19T05:04:05;27.60;61.30
40323;DHT22;26030;51.164;17.100;2022-08-19T05:09:09;27.50;60.90
40323;DHT22;26030;51.164;17.100;2022-08-19T05:14:27;27.50;61.40
40323;DHT22;26030;51.164;17.100;2022-08-19T05:19:33;27.50;61.00
40323;DHT22;26030;51.164;17.100;2022-08-19T05:25:07;27.50;61.10
40323;DHT22;26030;51.164;17.100;2022-08-19T05:30:17;27.50;61.10
40323;DHT22;26030;51.164;17.100;2022-08-19T05:35:21;27.60;61.30
40323;DHT22;26030;51.164;17.100;2022-08-19T05:40:25;27.50;61.30
40323;DHT22;26030;51.164;17.100;2022-08-19T05:45:30;27.60;61.40
40323;DHT22;26030;51.164;17.100;2022-08-19T05:50:32;27.50;61.40
40323;DHT22;26030;51.164;17.100;2022-08-19T05:55:35;27.60;61.50
40323;DHT22;26030;51.164;17.100;2022-08-19T06:00:40;27.50;61.40
40323;DHT22;26030;51.164;17.100;2022-08-19T06:05:45;27.60;61.50
40323;DHT22;26030;51.164;17.100;2022-08-19T06:10:53;27.60;61.40
40323;DHT22;26030;51.164;17.100;2022-08-19T06:15:55;27.60;61.80
40323;DHT22;26030;51.164;17.100;2022-08-19T06:20:57;27.60;61.80
40323;DHT22;26030;51.164;17.100;2022-08-19T06:26:00;27.60;61.50
40323;DHT22;26030;51.164;17.100;2022-08-19T06:31:05;27.60;61.50
40323;DHT22;26030;51.164;17.100;2022-08-19T06:36:16;27.70;61.60
40323;DHT22;26030;51.164;17.100;2022-08-19T06:41:19;27.60;61.50
40323;DHT22;26030;51.164;17.100;2022-08-19T06:46:22;27.60;61.60
40323;DHT22;26030;51.164;17.100;2022-08-19T06:51:26;27.70;61.80
40323;DHT22;26030;51.164;17.100;2022-08-19T06:56:33;27.70;61.70
40323;DHT22;26030;51.164;17.100;2022-08-19T07:01:41;27.70;61.80
40323;DHT22;26030;51.164;17.100;2022-08-19T07:06:47;27.70;62.10
40323;DHT22;26030;51.164;17.100;2022-08-19T07:11:56;27.70;61.80
40323;DHT22;26030;51.164;17.100;2022-08-19T07:16:58;27.70;61.80
40323;DHT22;26030;51.164;17.100;2022-08-19T07:22:02;27.80;62.00
40323;DHT22;26030;51.164;17.100;2022-08-19T07:27:06;27.80;62.10
40323;DHT22;26030;51.164;17.100;2022-08-19T07:32:18;27.80;62.10
40323;DHT22;26030;51.164;17.100;2022-08-19T07:37:20;27.80;62.10
40323;DHT22;26030;51.164;17.100;2022-08-19T07:42:25;27.80;62.10
40323;DHT22;26030;51.164;17.100;2022-08-19T07:47:32;27.90;62.20
40323;DHT22;26030;51.164;17.100;2022-08-19T07:52:52;27.90;62.10
40323;DHT22;26030;51.164;17.100;2022-08-19T07:57:54;27.90;62.10
40323;DHT22;26030;51.164;17.100;2022-08-19T08:02:57;27.90;62.10
40323;DHT22;26030;51.164;17.100;2022-08-19T08:07:59;27.90;62.20
40323;DHT22;26030;51.164;17.100;2022-08-19T08:13:20;27.90;62.50
40323;DHT22;26030;51.164;17.100;2022-08-19T08:18:24;28.00;62.20
40323;DHT22;26030;51.164;17.100;2022-08-19T08:23:31;28.00;62.20
40323;DHT22;26030;51.164;17.100;2022-08-19T08:28:34;28.00;62.10
40323;DHT22;26030;51.164;17.100;2022-08-19T08:33:36;28.00;62.10
40323;DHT22;26030;51.164;17.100;2022-08-19T08:38:39;28.10;61.50
40323;DHT22;26030;51.164;17.100;2022-08-19T08:43:45;28.10;61.60
40323;DHT22;26030;51.164;17.100;2022-08-19T08:48:49;28.20;61.50
40323;DHT22;26030;51.164;17.100;2022-08-19T08:54:01;28.20;61.40
40323;DHT22;26030;51.164;17.100;2022-08-19T09:04:30;28.20;61.40
40323;DHT22;26030;51.164;17.100;2022-08-19T09:09:43;28.30;61.40
40323;DHT22;26030;51.164;17.100;2022-08-19T09:19:59;28.30;61.30
40323;DHT22;26030;51.164;17.100;2022-08-19T09:25:11;28.40;61.30
40323;DHT22;26030;51.164;17.100;2022-08-19T09:30:19;28.40;61.20
40323;DHT22;26030;51.164;17.100;2022-08-19T09:35:28;28.40;61.10
40323;DHT22;26030;51.164;17.100;2022-08-19T09:40:54;28.40;61.10
40323;DHT22;26030;51.164;17.100;2022-08-19T09:45:57;28.50;61.00
40323;DHT22;26030;51.164;17.100;2022-08-19T09:51:06;28.50;60.90
40323;DHT22;26030;51.164;17.100;2022-08-19T09:56:19;28.60;60.90
40323;DHT22;26030;51.164;17.100;2022-08-19T10:01:26;28.60;61.10
40323;DHT22;26030;51.164;17.100;2022-08-19T10:06:30;28.70;60.90
40323;DHT22;26030;51.164;17.100;2022-08-19T10:11:48;28.70;60.80
40323;DHT22;26030;51.164;17.100;2022-08-19T10:16:56;28.70;60.70
40323;DHT22;26030;51.164;17.100;2022-08-19T10:22:02;28.70;60.60
40323;DHT22;26030;51.164;17.100;2022-08-19T10:27:11;28.80;60.50
40323;DHT22;26030;51.164;17.100;2022-08-19T10:32:17;28.80;60.40
40323;DHT22;26030;51.164;17.100;2022-08-19T10:37:33;28.90;60.40
40323;DHT22;26030;51.164;17.100;2022-08-19T10:42:48;28.90;60.30
40323;DHT22;26030;51.164;17.100;2022-08-19T10:47:54;29.00;60.40
40323;DHT22;26030;51.164;17.100;2022-08-19T10:53:02;28.90;60.30
40323;DHT22;26030;51.164;17.100;2022-08-19T10:58:12;29.00;60.40
40323;DHT22;26030;51.164;17.100;2022-08-19T11:03:16;29.00;60.20
40323;DHT22;26030;51.164;17.100;2022-08-19T11:08:18;29.10;60.20
40323;DHT22;26030;51.164;17.100;2022-08-19T11:13:25;29.10;60.20
40323;DHT22;26030;51.164;17.100;2022-08-19T11:18:28;29.20;60.10
40323;DHT22;26030;51.164;17.100;2022-08-19T11:23:31;29.20;60.00
40323;DHT22;26030;51.164;17.100;2022-08-19T11:28:33;29.20;60.10
40323;DHT22;26030;51.164;17.100;2022-08-19T11:33:36;29.20;60.00
40323;DHT22;26030;51.164;17.100;2022-08-19T11:38:38;29.30;60.00
40323;DHT22;26030;51.164;17.100;2022-08-19T11:43:41;29.40;60.00
40323;DHT22;26030;51.164;17.100;2022-08-19T11:48:43;29.30;59.90
40323;DHT22;26030;51.164;17.100;2022-08-19T11:53:49;29.40;60.00
40323;DHT22;26030;51.164;17.100;2022-08-19T11:58:53;29.40;60.00
40323;DHT22;26030;51.164;17.100;2022-08-19T12:03:58;29.40;60.00
40323;DHT22;26030;51.164;17.100;2022-08-19T12:09:04;29.50;59.90
40323;DHT22;26030;51.164;17.100;2022-08-19T12:14:10;29.50;60.00
40323;DHT22;26030;51.164;17.100;2022-08-19T12:19:16;29.50;60.30
40323;DHT22;26030;51.164;17.100;2022-08-19T12:24:24;29.50;60.20
40323;DHT22;26030;51.164;17.100;2022-08-19T12:29:27;29.60;60.00
40323;DHT22;26030;51.164;17.100;2022-08-19T12:34:31;29.60;60.10
40323;DHT22;26030;51.164;17.100;2022-08-19T12:39:35;29.60;60.00
40323;DHT22;26030;51.164;17.100;2022-08-19T12:44:39;29.60;60.00
40323;DHT22;26030;51.164;17.100;2022-08-19T12:49:43;29.60;60.10
40323;DHT22;26030;51.164;17.100;2022-08-19T12:54:57;29.70;60.00
40323;DHT22;26030;51.164;17.100;2022-08-19T13:00:01;29.70;60.00
40323;DHT22;26030;51.164;17.100;2022-08-19T13:05:22;29.70;60.00
40323;DHT22;26030;51.164;17.100;2022-08-19T13:10:27;29.70;60.10
40323;DHT22;26030;51.164;17.100;2022-08-19T13:15:33;29.70;59.80
40323;DHT22;26030;51.164;17.100;2022-08-19T13:20:37;29.70;59.90
40323;DHT22;26030;51.164;17.100;2022-08-19T13:25:42;29.70;59.80
40323;DHT22;26030;51.164;17.100;2022-08-19T13:30:49;29.70;59.60
40323;DHT22;26030;51.164;17.100;2022-08-19T13:36:10;29.70;59.40
40323;DHT22;26030;51.164;17.100;2022-08-19T13:41:13;29.70;59.40
40323;DHT22;26030;51.164;17.100;2022-08-19T13:46:16;29.80;59.30
40323;DHT22;26030;51.164;17.100;2022-08-19T13:51:18;29.80;59.30
40323;DHT22;26030;51.164;17.100;2022-08-19T13:56:21;29.80;59.20
40323;DHT22;26030;51.164;17.100;2022-08-19T14:01:28;29.80;59.30
40323;DHT22;26030;51.164;17.100;2022-08-19T14:06:32;29.80;59.30
40323;DHT22;26030;51.164;17.100;2022-08-19T14:11:34;29.70;59.40
40323;DHT22;26030;51.164;17.100;2022-08-19T14:16:37;29.70;59.30
40323;DHT22;26030;51.164;17.100;2022-08-19T14:21:39;29.70;59.20
40323;DHT22;26030;51.164;17.100;2022-08-19T14:26:42;29.70;59.70
40323;DHT22;26030;51.164;17.100;2022-08-19T14:31:45;29.70;59.40
40323;DHT22;26030;51.164;17.100;2022-08-19T14:36:48;29.70;59.50
40323;DHT22;26030;51.164;17.100;2022-08-19T14:41:51;29.70;59.60
40323;DHT22;26030;51.164;17.100;2022-08-19T14:47:00;29.70;60.00
40323;DHT22;26030;51.164;17.100;2022-08-19T14:52:03;29.60;59.70
40323;DHT22;26030;51.164;17.100;2022-08-19T14:57:06;29.60;59.70
40323;DHT22;26030;51.164;17.100;2022-08-19T15:02:08;29.60;60.00
40323;DHT22;26030;51.164;17.100;2022-08-19T15:07:30;29.60;59.70
40323;DHT22;26030;51.164;17.100;2022-08-19T15:12:34;29.60;59.60
40323;DHT22;26030;51.164;17.100;2022-08-19T15:17:41;29.60;59.60
40323;DHT22;26030;51.164;17.100;2022-08-19T15:22:48;29.60;59.90
40323;DHT22;26030;51.164;17.100;2022-08-19T15:27:50;29.60;60.40
40323;DHT22;26030;51.164;17.100;2022-08-19T15:32:56;29.50;60.20
40323;DHT22;26030;51.164;17.100;2022-08-19T15:37:59;29.50;60.20
40323;DHT22;26030;51.164;17.100;2022-08-19T15:43:06;29.50;60.00
40323;DHT22;26030;51.164;17.100;2022-08-19T15:48:09;29.50;60.40
40323;DHT22;26030;51.164;17.100;2022-08-19T15:53:12;29.50;61.30
40323;DHT22;26030;51.164;17.100;2022-08-19T15:58:14;29.50;60.90
40323;DHT22;26030;51.164;17.100;2022-08-19T16:03:35;29.50;62.00
40323;DHT22;26030;51.164;17.100;2022-08-19T16:08:59;29.50;62.90
40323;DHT22;26030;51.164;17.100;2022-08-19T16:14:04;29.60;62.90
40323;DHT22;26030;51.164;17.100;2022-08-19T16:19:09;29.60;62.80
40323;DHT22;26030;51.164;17.100;2022-08-19T16:24:14;29.50;63.60
40323;DHT22;26030;51.164;17.100;2022-08-19T16:29:18;29.50;62.40
40323;DHT22;26030;51.164;17.100;2022-08-19T16:34:40;29.50;62.10
40323;DHT22;26030;51.164;17.100;2022-08-19T16:39:43;29.50;62.20
40323;DHT22;26030;51.164;17.100;2022-08-19T16:44:46;29.50;62.40
40323;DHT22;26030;51.164;17.100;2022-08-19T16:49:48;29.50;62.20
40323;DHT22;26030;51.164;17.100;2022-08-19T16:54:56;29.50;62.10
40323;DHT22;26030;51.164;17.100;2022-08-19T16:59:59;29.50;62.10
40323;DHT22;26030;51.164;17.100;2022-08-19T17:05:07;29.50;61.90
40323;DHT22;26030;51.164;17.100;2022-08-19T17:10:10;29.50;61.90
40323;DHT22;26030;51.164;17.100;2022-08-19T17:15:13;29.50;61.90
40323;DHT22;26030;51.164;17.100;2022-08-19T17:20:15;29.40;61.80
40323;DHT22;26030;51.164;17.100;2022-08-19T17:25:17;29.40;61.80
40323;DHT22;26030;51.164;17.100;2022-08-19T17:30:20;29.40;62.10
40323;DHT22;26030;51.164;17.100;2022-08-19T17:35:23;29.40;62.10
40323;DHT22;26030;51.164;17.100;2022-08-19T17:40:25;29.40;61.70
40323;DHT22;26030;51.164;17.100;2022-08-19T17:45:31;29.40;62.10
40323;DHT22;26030;51.164;17.100;2022-08-19T17:50:33;29.40;61.70
40323;DHT22;26030;51.164;17.100;2022-08-19T17:55:37;29.40;61.70
40323;DHT22;26030;51.164;17.100;2022-08-19T18:00:39;29.30;62.30
40323;DHT22;26030;51.164;17.100;2022-08-19T18:05:57;29.30;61.70
40323;DHT22;26030;51.164;17.100;2022-08-19T18:10:59;29.30;61.60
40323;DHT22;26030;51.164;17.100;2022-08-19T18:16:02;29.40;61.70
40323;DHT22;26030;51.164;17.100;2022-08-19T18:21:11;29.30;61.70
40323;DHT22;26030;51.164;17.100;2022-08-19T18:26:15;29.30;61.70
40323;DHT22;26030;51.164;17.100;2022-08-19T18:31:20;29.30;61.90
40323;DHT22;26030;51.164;17.100;2022-08-19T18:36:24;29.30;61.90
40323;DHT22;26030;51.164;17.100;2022-08-19T18:41:46;29.30;62.10
40323;DHT22;26030;51.164;17.100;2022-08-19T18:47:07;29.30;62.30
40323;DHT22;26030;51.164;17.100;2022-08-19T18:52:28;29.30;62.20
40323;DHT22;26030;51.164;17.100;2022-08-19T18:57:30;29.20;62.50
40323;DHT22;26030;51.164;17.100;2022-08-19T19:02:35;29.20;62.60
40323;DHT22;26030;51.164;17.100;2022-08-19T19:07:41;29.30;62.60
40323;DHT22;26030;51.164;17.100;2022-08-19T19:12:44;29.20;62.60
40323;DHT22;26030;51.164;17.100;2022-08-19T19:17:46;29.20;62.60
40323;DHT22;26030;51.164;17.100;2022-08-19T19:22:48;29.20;62.70
40323;DHT22;26030;51.164;17.100;2022-08-19T19:27:51;29.20;62.70
40323;DHT22;26030;51.164;17.100;2022-08-19T19:32:56;29.20;62.70
40323;DHT22;26030;51.164;17.100;2022-08-19T19:38:02;29.20;62.80
40323;DHT22;26030;51.164;17.100;2022-08-19T19:43:04;29.20;62.90
40323;DHT22;26030;51.164;17.100;2022-08-19T19:48:09;29.20;63.50
40323;DHT22;26030;51.164;17.100;2022-08-19T19:53:15;29.20;63.30
40323;DHT22;26030;51.164;17.100;2022-08-19T19:58:20;29.10;63.30
40323;DHT22;26030;51.164;17.100;2022-08-19T20:03:30;29.20;63.20
40323;DHT22;26030;51.164;17.100;2022-08-19T20:08:38;29.10;63.70
40323;DHT22;26030;51.164;17.100;2022-08-19T20:14:04;29.10;63.00
40323;DHT22;26030;51.164;17.100;2022-08-19T20:19:17;29.10;63.10
40323;DHT22;26030;51.164;17.100;2022-08-19T20:24:23;29.10;62.90
40323;DHT22;26030;51.164;17.100;2022-08-19T20:29:28;29.10;62.90
40323;DHT22;26030;51.164;17.100;2022-08-19T20:34:44;29.10;63.00
40323;DHT22;26030;51.164;17.100;2022-08-19T20:39:51;29.10;63.10
40323;DHT22;26030;51.164;17.100;2022-08-19T20:44:53;29.10;63.20
40323;DHT22;26030;51.164;17.100;2022-08-19T20:49:58;29.10;63.30
40323;DHT22;26030;51.164;17.100;2022-08-19T20:55:01;29.00;63.40
40323;DHT22;26030;51.164;17.100;2022-08-19T21:00:04;29.00;63.40
40323;DHT22;26030;51.164;17.100;2022-08-19T21:05:16;29.00;63.40
40323;DHT22;26030;51.164;17.100;2022-08-19T21:10:18;29.00;63.80
40323;DHT22;26030;51.164;17.100;2022-08-19T21:15:23;29.00;63.60
40323;DHT22;26030;51.164;17.100;2022-08-19T21:20:25;29.00;63.60
40323;DHT22;26030;51.164;17.100;2022-08-19T21:25:28;29.00;63.60
40323;DHT22;26030;51.164;17.100;2022-08-19T21:30:34;29.00;63.00
40323;DHT22;26030;51.164;17.100;2022-08-19T21:35:38;29.00;63.40
40323;DHT22;26030;51.164;17.100;2022-08-19T21:40:42;29.00;63.50
40323;DHT22;26030;51.164;17.100;2022-08-19T21:45:45;28.90;64.20
40323;DHT22;26030;51.164;17.100;2022-08-19T21:50:48;29.00;63.70
40323;DHT22;26030;51.164;17.100;2022-08-19T21:55:51;28.90;63.60
40323;DHT22;26030;51.164;17.100;2022-08-19T22:00:56;29.00;64.20
40323;DHT22;26030;51.164;17.100;2022-08-19T22:06:01;28.90;63.60
40323;DHT22;26030;51.164;17.100;2022-08-19T22:11:04;28.90;63.60
40323;DHT22;26030;51.164;17.100;2022-08-19T22:16:07;28.90;63.90
40323;DHT22;26030;51.164;17.100;2022-08-19T22:21:10;28.90;63.90
40323;DHT22;26030;51.164;17.100;2022-08-19T22:26:15;28.90;63.50
40323;DHT22;26030;51.164;17.100;2022-08-19T22:31:19;28.90;64.10
40323;DHT22;26030;51.164;17.100;2022-08-19T22:36:21;28.90;63.50
40323;DHT22;26030;51.164;17.100;2022-08-19T22:41:23;28.90;63.50
40323;DHT22;26030;51.164;17.100;2022-08-19T22:46:26;28.80;63.20
40323;DHT22;26030;51.164;17.100;2022-08-19T22:51:28;28.90;63.50
40323;DHT22;26030;51.164;17.100;2022-08-19T22:56:49;28.80;63.80
40323;DHT22;26030;51.164;17.100;2022-08-19T23:01:52;28.80;63.50
40323;DHT22;26030;51.164;17.100;2022-08-19T23:06:55;28.80;63.60
40323;DHT22;26030;51.164;17.100;2022-08-19T23:11:57;28.80;63.80
40323;DHT22;26030;51.164;17.100;2022-08-19T23:17:03;28.80;64.40
40323;DHT22;26030;51.164;17.100;2022-08-19T23:22:22;28.80;64.30
40323;DHT22;26030;51.164;17.100;2022-08-19T23:27:26;28.90;63.80
40323;DHT22;26030;51.164;17.100;2022-08-19T23:32:47;28.90;64.10
40323;DHT22;26030;51.164;17.100;2022-08-19T23:37:49;28.90;64.10
40323;DHT22;26030;51.164;17.100;2022-08-19T23:42:53;28.90;63.60
40323;DHT22;26030;51.164;17.100;2022-08-19T23:47:55;28.90;63.90
40323;DHT22;26030;51.164;17.100;2022-08-19T23:52:58;28.90;63.70
40323;DHT22;26030;51.164;17.100;2022-08-19T23:58:02;28.90;63.80
